RYR156P EICK-EGPH
Flight info
| Callsign | RYR156P |
|---|---|
| Flight time | 1h 3m |
| Altitude | 37000 |
| Route | TISMO1S TISMO DCT ROTEV DCT GOTNA DCT BLACA P600 TUNSO |
| Aircraft | B738/M-SDE2E3FGHIRWXY/LB1 |
Departure
| Time | 2026-04-20 19:29 |
|---|---|
| Airport | Cork International Airport (EICK) |
Arrival
| Time | 2026-04-20 20:32 |
|---|---|
| Airport | Edinburgh Airport (EGPH) |
| Time | Latitude | Longitude | Altitude | Speed | Heading |
|---|---|---|---|---|---|
| 2026-04-20 19:11 | 51.84980 | -8.49133 | 475 ft | 0 kts | 70° |
| 2026-04-20 19:20 | 51.84977 | -8.49143 | 503 ft | 4 kts | 69° |
| 2026-04-20 19:21 | 51.84966 | -8.49183 | 502 ft | 4 kts | 61° |
| 2026-04-20 19:21 | 51.84955 | -8.49215 | 502 ft | 2 kts | 64° |
| 2026-04-20 19:21 | 51.84942 | -8.49248 | 502 ft | 4 kts | 34° |
| 2026-04-20 19:21 | 51.84921 | -8.49264 | 502 ft | 4 kts | 7° |
| 2026-04-20 19:22 | 51.84905 | -8.49260 | 502 ft | 0 kts | 347° |
| 2026-04-20 19:24 | 51.84928 | -8.49268 | 502 ft | 9 kts | 347° |
| 2026-04-20 19:24 | 51.85006 | -8.49306 | 502 ft | 11 kts | 340° |
| 2026-04-20 19:25 | 51.85076 | -8.49346 | 502 ft | 11 kts | 341° |
| 2026-04-20 19:25 | 51.85137 | -8.49402 | 501 ft | 10 kts | 300° |
| 2026-04-20 19:25 | 51.85126 | -8.49484 | 490 ft | 5 kts | 221° |
| 2026-04-20 19:25 | 51.85116 | -8.49495 | 493 ft | 0 kts | 208° |
| 2026-04-20 19:27 | 51.85113 | -8.49497 | 493 ft | 2 kts | 208° |
| 2026-04-20 19:27 | 51.85070 | -8.49532 | 490 ft | 12 kts | 208° |
| 2026-04-20 19:27 | 51.84969 | -8.49596 | 485 ft | 17 kts | 178° |
| 2026-04-20 19:28 | 51.84935 | -8.49583 | 488 ft | 1 kts | 159° |
| 2026-04-20 19:28 | 51.84849 | -8.49533 | 485 ft | 45 kts | 159° |
| 2026-04-20 19:28 | 51.84292 | -8.49204 | 483 ft | 123 kts | 160° |
| 2026-04-20 19:28 | 51.83304 | -8.48608 | 660 ft | 168 kts | 159° |
| 2026-04-20 19:29 | 51.82198 | -8.47986 | 1641 ft | 170 kts | 156° |
| 2026-04-20 19:29 | 51.81046 | -8.47354 | 2541 ft | 178 kts | 157° |
| 2026-04-20 19:29 | 51.79880 | -8.46411 | 2968 ft | 198 kts | 134° |
| 2026-04-20 19:29 | 51.79317 | -8.44364 | 3325 ft | 214 kts | 90° |
| 2026-04-20 19:30 | 51.79801 | -8.42061 | 3851 ft | 228 kts | 53° |
| 2026-04-20 19:30 | 51.81068 | -8.40332 | 4383 ft | 248 kts | 38° |
| 2026-04-20 19:30 | 51.82501 | -8.38727 | 5100 ft | 257 kts | 36° |
| 2026-04-20 19:30 | 51.83986 | -8.37107 | 6019 ft | 259 kts | 37° |
| 2026-04-20 19:31 | 51.85463 | -8.35443 | 6931 ft | 260 kts | 37° |
| 2026-04-20 19:31 | 51.86988 | -8.33784 | 7634 ft | 268 kts | 33° |
| 2026-04-20 19:31 | 51.88596 | -8.32187 | 8355 ft | 275 kts | 32° |
| 2026-04-20 19:31 | 51.90260 | -8.30560 | 9062 ft | 282 kts | 31° |
| 2026-04-20 19:32 | 51.91956 | -8.28904 | 9863 ft | 287 kts | 31° |
| 2026-04-20 19:32 | 51.93683 | -8.27211 | 10537 ft | 295 kts | 31° |
| 2026-04-20 19:32 | 51.95509 | -8.25414 | 10752 ft | 319 kts | 31° |
| 2026-04-20 19:32 | 51.97450 | -8.23494 | 11207 ft | 332 kts | 31° |
| 2026-04-20 19:33 | 51.99432 | -8.21528 | 11969 ft | 335 kts | 31° |
| 2026-04-20 19:33 | 52.01425 | -8.19542 | 12795 ft | 338 kts | 30° |
| 2026-04-20 19:33 | 52.03435 | -8.17535 | 13611 ft | 341 kts | 30° |
| 2026-04-20 19:33 | 52.05465 | -8.15506 | 14382 ft | 345 kts | 29° |
| 2026-04-20 19:34 | 52.07521 | -8.13449 | 15098 ft | 349 kts | 29° |
| 2026-04-20 19:34 | 52.09601 | -8.11364 | 15833 ft | 354 kts | 29° |
| 2026-04-20 19:34 | 52.11706 | -8.09251 | 16580 ft | 357 kts | 29° |
| 2026-04-20 19:34 | 52.13835 | -8.07111 | 17333 ft | 362 kts | 28° |
| 2026-04-20 19:35 | 52.15988 | -8.04944 | 18061 ft | 366 kts | 28° |
| 2026-04-20 19:35 | 52.18168 | -8.02748 | 18746 ft | 370 kts | 27° |
| 2026-04-20 19:35 | 52.20372 | -8.00524 | 19375 ft | 375 kts | 27° |
| 2026-04-20 19:35 | 52.22599 | -7.98275 | 19995 ft | 379 kts | 27° |
| 2026-04-20 19:36 | 52.24848 | -7.96000 | 20610 ft | 382 kts | 27° |
| 2026-04-20 19:36 | 52.27123 | -7.93696 | 21254 ft | 386 kts | 27° |
| 2026-04-20 19:36 | 52.29420 | -7.91368 | 21854 ft | 391 kts | 26° |
| 2026-04-20 19:36 | 52.31749 | -7.89006 | 22391 ft | 397 kts | 26° |
| 2026-04-20 19:37 | 52.34072 | -7.86645 | 22981 ft | 400 kts | 26° |
| 2026-04-20 19:37 | 52.36448 | -7.84227 | 23569 ft | 404 kts | 26° |
| 2026-04-20 19:37 | 52.38846 | -7.81783 | 24069 ft | 408 kts | 26° |
| 2026-04-20 19:37 | 52.41266 | -7.79314 | 24534 ft | 412 kts | 25° |
| 2026-04-20 19:38 | 52.43705 | -7.76821 | 25024 ft | 414 kts | 25° |
| 2026-04-20 19:38 | 52.46161 | -7.74307 | 25489 ft | 418 kts | 25° |
| 2026-04-20 19:38 | 52.48635 | -7.71772 | 25936 ft | 421 kts | 25° |
| 2026-04-20 19:38 | 52.51129 | -7.69214 | 26372 ft | 424 kts | 25° |
| 2026-04-20 19:39 | 52.53639 | -7.66635 | 26839 ft | 427 kts | 25° |
| 2026-04-20 19:39 | 52.56168 | -7.64034 | 27273 ft | 430 kts | 24° |
| 2026-04-20 19:39 | 52.58714 | -7.61411 | 27703 ft | 433 kts | 24° |
| 2026-04-20 19:39 | 52.61274 | -7.58770 | 28130 ft | 436 kts | 24° |
| 2026-04-20 19:40 | 52.63851 | -7.56108 | 28518 ft | 439 kts | 24° |
| 2026-04-20 19:40 | 52.66448 | -7.53422 | 28906 ft | 442 kts | 24° |
| 2026-04-20 19:40 | 52.69063 | -7.50713 | 29337 ft | 445 kts | 24° |
| 2026-04-20 19:40 | 52.71691 | -7.47986 | 29724 ft | 448 kts | 24° |
| 2026-04-20 19:41 | 52.74337 | -7.45238 | 30081 ft | 451 kts | 24° |
| 2026-04-20 19:41 | 52.76996 | -7.42470 | 30414 ft | 453 kts | 24° |
| 2026-04-20 19:41 | 52.79667 | -7.39685 | 30797 ft | 454 kts | 24° |
| 2026-04-20 19:41 | 52.82334 | -7.36897 | 31203 ft | 453 kts | 24° |
| 2026-04-20 19:42 | 52.84994 | -7.34111 | 31634 ft | 452 kts | 25° |
| 2026-04-20 19:42 | 52.87645 | -7.31332 | 32058 ft | 450 kts | 25° |
| 2026-04-20 19:42 | 52.90288 | -7.28559 | 32455 ft | 450 kts | 25° |
| 2026-04-20 19:42 | 52.92929 | -7.25787 | 32850 ft | 449 kts | 26° |
| 2026-04-20 19:43 | 52.95561 | -7.23020 | 33274 ft | 448 kts | 26° |
| 2026-04-20 19:43 | 52.98191 | -7.20251 | 33668 ft | 447 kts | 26° |
| 2026-04-20 19:43 | 53.00810 | -7.17491 | 34049 ft | 446 kts | 26° |
| 2026-04-20 19:43 | 53.03386 | -7.14771 | 34395 ft | 445 kts | 27° |
| 2026-04-20 19:44 | 53.06034 | -7.11970 | 34849 ft | 441 kts | 28° |
| 2026-04-20 19:44 | 53.08561 | -7.09292 | 35203 ft | 439 kts | 28° |
| 2026-04-20 19:44 | 53.11195 | -7.06500 | 35463 ft | 440 kts | 28° |
| 2026-04-20 19:44 | 53.13779 | -7.03758 | 35706 ft | 441 kts | 28° |
| 2026-04-20 19:45 | 53.16362 | -7.01012 | 36015 ft | 440 kts | 28° |
| 2026-04-20 19:45 | 53.18933 | -6.98274 | 36348 ft | 438 kts | 28° |
| 2026-04-20 19:45 | 53.21497 | -6.95539 | 36650 ft | 437 kts | 29° |
| 2026-04-20 19:45 | 53.24026 | -6.92838 | 36912 ft | 437 kts | 29° |
| 2026-04-20 19:46 | 53.26589 | -6.90096 | 37190 ft | 437 kts | 29° |
| 2026-04-20 19:46 | 53.31736 | -6.84582 | 37292 ft | 442 kts | 29° |
| 2026-04-20 19:47 | 53.36902 | -6.79027 | 37286 ft | 439 kts | 29° |
| 2026-04-20 19:47 | 53.41999 | -6.73526 | 37295 ft | 434 kts | 29° |
| 2026-04-20 19:48 | 53.47070 | -6.68044 | 37304 ft | 434 kts | 30° |
| 2026-04-20 19:48 | 53.52141 | -6.62546 | 37308 ft | 434 kts | 30° |
| 2026-04-20 19:49 | 53.57212 | -6.57032 | 37321 ft | 434 kts | 30° |
| 2026-04-20 19:49 | 53.62287 | -6.51496 | 37305 ft | 435 kts | 30° |
| 2026-04-20 19:50 | 53.67361 | -6.45945 | 37304 ft | 435 kts | 30° |
| 2026-04-20 19:50 | 53.72438 | -6.40374 | 37307 ft | 436 kts | 30° |
| 2026-04-20 19:51 | 53.77521 | -6.34780 | 37302 ft | 436 kts | 30° |
| 2026-04-20 19:51 | 53.82605 | -6.29169 | 37304 ft | 436 kts | 30° |
| 2026-04-20 19:52 | 53.87693 | -6.23537 | 37312 ft | 437 kts | 31° |
| 2026-04-20 19:52 | 53.92782 | -6.17887 | 37307 ft | 437 kts | 31° |
| 2026-04-20 19:53 | 53.97873 | -6.12217 | 37303 ft | 438 kts | 31° |
| 2026-04-20 19:53 | 54.02937 | -6.06593 | 37317 ft | 437 kts | 28° |
| 2026-04-20 19:54 | 54.07448 | -6.02611 | 37317 ft | 435 kts | 23° |
| 2026-04-20 19:54 | 54.10949 | -5.99833 | 37295 ft | 418 kts | 22° |
| 2026-04-20 19:54 | 54.13584 | -5.97756 | 37111 ft | 409 kts | 22° |
| 2026-04-20 19:54 | 54.15293 | -5.96401 | 36775 ft | 408 kts | 22° |
| 2026-04-20 19:55 | 54.17825 | -5.94379 | 36514 ft | 396 kts | 22° |
| 2026-04-20 19:55 | 54.21095 | -5.91723 | 35673 ft | 396 kts | 23° |
| 2026-04-20 19:55 | 54.23624 | -5.89650 | 34647 ft | 408 kts | 22° |
| 2026-04-20 19:55 | 54.26192 | -5.87533 | 33904 ft | 410 kts | 22° |
| 2026-04-20 19:56 | 54.27920 | -5.86104 | 33524 ft | 406 kts | 22° |
| 2026-04-20 19:56 | 54.31264 | -5.83333 | 32911 ft | 402 kts | 22° |
| 2026-04-20 19:56 | 54.32925 | -5.81956 | 32650 ft | 399 kts | 22° |
| 2026-04-20 19:56 | 54.35415 | -5.79891 | 32282 ft | 396 kts | 22° |
| 2026-04-20 19:57 | 54.37883 | -5.77843 | 31917 ft | 393 kts | 22° |
| 2026-04-20 19:57 | 54.40336 | -5.75806 | 31541 ft | 391 kts | 22° |
| 2026-04-20 19:57 | 54.42777 | -5.73777 | 31146 ft | 389 kts | 22° |
| 2026-04-20 19:57 | 54.45206 | -5.71756 | 30762 ft | 387 kts | 22° |
| 2026-04-20 19:58 | 54.47621 | -5.69742 | 30384 ft | 385 kts | 22° |
| 2026-04-20 19:58 | 54.50022 | -5.67738 | 29951 ft | 382 kts | 22° |
| 2026-04-20 19:58 | 54.52402 | -5.65749 | 29530 ft | 379 kts | 22° |
| 2026-04-20 19:58 | 54.54765 | -5.63772 | 29105 ft | 376 kts | 22° |
| 2026-04-20 19:59 | 54.57113 | -5.61804 | 28659 ft | 374 kts | 22° |
| 2026-04-20 19:59 | 54.59412 | -5.59729 | 28225 ft | 374 kts | 28° |
| 2026-04-20 19:59 | 54.61494 | -5.57012 | 27815 ft | 376 kts | 37° |
| 2026-04-20 19:59 | 54.63452 | -5.54044 | 27447 ft | 374 kts | 38° |
| 2026-04-20 20:00 | 54.65384 | -5.51052 | 27024 ft | 372 kts | 39° |
| 2026-04-20 20:00 | 54.67308 | -5.48071 | 26624 ft | 370 kts | 38° |
| 2026-04-20 20:00 | 54.69225 | -5.45116 | 26246 ft | 368 kts | 38° |
| 2026-04-20 20:00 | 54.71133 | -5.42190 | 25874 ft | 366 kts | 38° |
| 2026-04-20 20:01 | 54.73033 | -5.39286 | 25513 ft | 363 kts | 39° |
| 2026-04-20 20:01 | 54.74923 | -5.36401 | 25170 ft | 361 kts | 39° |
| 2026-04-20 20:01 | 54.76799 | -5.33537 | 24807 ft | 359 kts | 39° |
| 2026-04-20 20:01 | 54.78672 | -5.30674 | 24446 ft | 357 kts | 39° |
| 2026-04-20 20:02 | 54.80529 | -5.27833 | 24097 ft | 356 kts | 39° |
| 2026-04-20 20:02 | 54.82379 | -5.24999 | 23727 ft | 354 kts | 39° |
| 2026-04-20 20:02 | 54.84215 | -5.22184 | 23343 ft | 351 kts | 39° |
| 2026-04-20 20:02 | 54.86035 | -5.19388 | 22979 ft | 348 kts | 39° |
| 2026-04-20 20:03 | 54.87852 | -5.16642 | 22603 ft | 345 kts | 36° |
| 2026-04-20 20:03 | 54.89854 | -5.14406 | 22222 ft | 340 kts | 25° |
| 2026-04-20 20:03 | 54.91965 | -5.12588 | 21869 ft | 338 kts | 25° |
| 2026-04-20 20:03 | 54.94074 | -5.10815 | 21485 ft | 336 kts | 25° |
| 2026-04-20 20:04 | 54.96177 | -5.09041 | 21126 ft | 334 kts | 25° |
| 2026-04-20 20:04 | 54.98230 | -5.07288 | 20761 ft | 333 kts | 26° |
| 2026-04-20 20:04 | 55.00303 | -5.05504 | 20407 ft | 331 kts | 26° |
| 2026-04-20 20:04 | 55.02359 | -5.03723 | 20073 ft | 329 kts | 26° |
| 2026-04-20 20:05 | 55.04406 | -5.01944 | 19710 ft | 328 kts | 27° |
| 2026-04-20 20:05 | 55.06434 | -5.00178 | 19449 ft | 323 kts | 27° |
| 2026-04-20 20:05 | 55.08445 | -4.98423 | 19069 ft | 323 kts | 27° |
| 2026-04-20 20:05 | 55.10382 | -4.96474 | 18742 ft | 320 kts | 41° |
| 2026-04-20 20:06 | 55.11775 | -4.93532 | 18411 ft | 313 kts | 64° |
| 2026-04-20 20:06 | 55.12693 | -4.90136 | 18131 ft | 307 kts | 68° |
| 2026-04-20 20:06 | 55.13539 | -4.86714 | 17691 ft | 307 kts | 69° |
| 2026-04-20 20:06 | 55.14371 | -4.83283 | 17334 ft | 306 kts | 69° |
| 2026-04-20 20:07 | 55.15199 | -4.79869 | 16988 ft | 304 kts | 69° |
| 2026-04-20 20:07 | 55.16026 | -4.76471 | 16639 ft | 303 kts | 68° |
| 2026-04-20 20:07 | 55.16843 | -4.73132 | 16318 ft | 301 kts | 68° |
| 2026-04-20 20:07 | 55.17663 | -4.69786 | 16050 ft | 297 kts | 68° |
| 2026-04-20 20:08 | 55.18472 | -4.66496 | 15855 ft | 292 kts | 68° |
| 2026-04-20 20:08 | 55.19272 | -4.63244 | 15693 ft | 290 kts | 68° |
| 2026-04-20 20:08 | 55.20063 | -4.60023 | 15528 ft | 287 kts | 68° |
| 2026-04-20 20:08 | 55.20856 | -4.56796 | 15373 ft | 290 kts | 69° |
| 2026-04-20 20:09 | 55.21656 | -4.53533 | 15220 ft | 294 kts | 69° |
| 2026-04-20 20:09 | 55.22463 | -4.50239 | 15051 ft | 294 kts | 68° |
| 2026-04-20 20:09 | 55.23266 | -4.46962 | 14889 ft | 292 kts | 68° |
| 2026-04-20 20:09 | 55.24063 | -4.43700 | 14719 ft | 290 kts | 69° |
| 2026-04-20 20:10 | 55.24856 | -4.40455 | 14562 ft | 289 kts | 69° |
| 2026-04-20 20:10 | 55.25644 | -4.37224 | 14406 ft | 287 kts | 69° |
| 2026-04-20 20:10 | 55.26428 | -4.34008 | 14247 ft | 286 kts | 69° |
| 2026-04-20 20:10 | 55.27206 | -4.30806 | 14066 ft | 285 kts | 69° |
| 2026-04-20 20:11 | 55.27981 | -4.27614 | 13916 ft | 284 kts | 69° |
| 2026-04-20 20:11 | 55.28753 | -4.24432 | 13741 ft | 283 kts | 69° |
| 2026-04-20 20:11 | 55.29520 | -4.21261 | 13572 ft | 282 kts | 69° |
| 2026-04-20 20:11 | 55.30284 | -4.18104 | 13435 ft | 281 kts | 69° |
| 2026-04-20 20:12 | 55.31045 | -4.14950 | 13276 ft | 280 kts | 69° |
| 2026-04-20 20:12 | 55.31804 | -4.11801 | 13118 ft | 280 kts | 69° |
| 2026-04-20 20:12 | 55.32561 | -4.08656 | 12968 ft | 279 kts | 69° |
| 2026-04-20 20:13 | 55.34072 | -4.02363 | 12671 ft | 280 kts | 69° |
| 2026-04-20 20:13 | 55.34827 | -3.99211 | 12498 ft | 280 kts | 69° |
| 2026-04-20 20:13 | 55.35584 | -3.96052 | 12345 ft | 280 kts | 69° |
| 2026-04-20 20:13 | 55.36338 | -3.92895 | 12185 ft | 280 kts | 69° |
| 2026-04-20 20:14 | 55.37091 | -3.89737 | 12034 ft | 280 kts | 69° |
| 2026-04-20 20:14 | 55.37842 | -3.86585 | 11869 ft | 279 kts | 69° |
| 2026-04-20 20:14 | 55.38590 | -3.83441 | 11716 ft | 278 kts | 69° |
| 2026-04-20 20:14 | 55.39325 | -3.80349 | 11581 ft | 277 kts | 69° |
| 2026-04-20 20:15 | 55.40067 | -3.77223 | 11416 ft | 277 kts | 69° |
| 2026-04-20 20:15 | 55.40806 | -3.74101 | 11275 ft | 276 kts | 69° |
| 2026-04-20 20:15 | 55.41542 | -3.70988 | 11109 ft | 275 kts | 68° |
| 2026-04-20 20:15 | 55.42276 | -3.67879 | 10977 ft | 274 kts | 69° |
| 2026-04-20 20:16 | 55.43008 | -3.64780 | 10828 ft | 274 kts | 69° |
| 2026-04-20 20:16 | 55.43737 | -3.61686 | 10672 ft | 273 kts | 69° |
| 2026-04-20 20:16 | 55.44475 | -3.58545 | 10231 ft | 284 kts | 69° |
| 2026-04-20 20:16 | 55.45224 | -3.55352 | 9970 ft | 280 kts | 69° |
| 2026-04-20 20:17 | 55.45953 | -3.52248 | 9877 ft | 270 kts | 69° |
| 2026-04-20 20:17 | 55.46676 | -3.49161 | 9521 ft | 272 kts | 69° |
| 2026-04-20 20:17 | 55.47387 | -3.46128 | 9180 ft | 264 kts | 69° |
| 2026-04-20 20:17 | 55.48074 | -3.43186 | 8895 ft | 254 kts | 69° |
| 2026-04-20 20:18 | 55.48729 | -3.40378 | 8585 ft | 240 kts | 69° |
| 2026-04-20 20:18 | 55.49419 | -3.37770 | 8271 ft | 231 kts | 57° |
| 2026-04-20 20:18 | 55.50636 | -3.35989 | 7946 ft | 231 kts | 25° |
| 2026-04-20 20:18 | 55.52247 | -3.35652 | 7667 ft | 241 kts | 353° |
| 2026-04-20 20:19 | 55.53784 | -3.36880 | 7371 ft | 248 kts | 322° |
| 2026-04-20 20:19 | 55.55019 | -3.39017 | 7076 ft | 249 kts | 315° |
| 2026-04-20 20:19 | 55.56200 | -3.41268 | 6784 ft | 250 kts | 314° |
| 2026-04-20 20:19 | 55.57374 | -3.43526 | 6458 ft | 250 kts | 314° |
| 2026-04-20 20:20 | 55.58546 | -3.45792 | 6149 ft | 250 kts | 314° |
| 2026-04-20 20:20 | 55.59695 | -3.48020 | 5986 ft | 239 kts | 314° |
| 2026-04-20 20:20 | 55.60794 | -3.50159 | 5908 ft | 234 kts | 314° |
| 2026-04-20 20:20 | 55.61876 | -3.52272 | 5625 ft | 226 kts | 314° |
| 2026-04-20 20:21 | 55.62902 | -3.54283 | 5351 ft | 214 kts | 314° |
| 2026-04-20 20:21 | 55.63877 | -3.56201 | 5091 ft | 204 kts | 314° |
| 2026-04-20 20:21 | 55.64794 | -3.58011 | 5003 ft | 198 kts | 314° |
| 2026-04-20 20:21 | 55.65721 | -3.59847 | 5011 ft | 198 kts | 314° |
| 2026-04-20 20:22 | 55.66645 | -3.61680 | 4992 ft | 199 kts | 314° |
| 2026-04-20 20:22 | 55.67573 | -3.63521 | 4860 ft | 203 kts | 314° |
| 2026-04-20 20:22 | 55.68506 | -3.65368 | 4593 ft | 203 kts | 314° |
| 2026-04-20 20:22 | 55.69442 | -3.67225 | 4325 ft | 200 kts | 314° |
| 2026-04-20 20:23 | 55.70374 | -3.69078 | 4073 ft | 198 kts | 314° |
| 2026-04-20 20:23 | 55.71290 | -3.70900 | 4018 ft | 200 kts | 314° |
| 2026-04-20 20:23 | 55.72206 | -3.72718 | 3998 ft | 200 kts | 314° |
| 2026-04-20 20:23 | 55.73125 | -3.74553 | 3991 ft | 197 kts | 314° |
| 2026-04-20 20:24 | 55.74018 | -3.76368 | 3982 ft | 194 kts | 314° |
| 2026-04-20 20:24 | 55.74904 | -3.78181 | 3986 ft | 195 kts | 314° |
| 2026-04-20 20:24 | 55.75794 | -3.79997 | 3987 ft | 194 kts | 317° |
| 2026-04-20 20:24 | 55.76923 | -3.81125 | 3994 ft | 184 kts | 356° |
| 2026-04-20 20:25 | 55.78136 | -3.80761 | 4002 ft | 176 kts | 27° |
| 2026-04-20 20:25 | 55.79259 | -3.79869 | 4001 ft | 178 kts | 28° |
| 2026-04-20 20:25 | 55.80381 | -3.78927 | 3997 ft | 179 kts | 31° |
| 2026-04-20 20:25 | 55.81263 | -3.77451 | 4002 ft | 174 kts | 59° |
| 2026-04-20 20:26 | 55.81949 | -3.75669 | 3993 ft | 175 kts | 57° |
| 2026-04-20 20:26 | 55.82628 | -3.73872 | 4000 ft | 176 kts | 59° |
| 2026-04-20 20:26 | 55.83279 | -3.72027 | 3994 ft | 176 kts | 60° |
| 2026-04-20 20:26 | 55.83915 | -3.70166 | 4011 ft | 177 kts | 60° |
| 2026-04-20 20:27 | 55.84548 | -3.68293 | 3996 ft | 175 kts | 61° |
| 2026-04-20 20:27 | 55.85180 | -3.66410 | 3796 ft | 178 kts | 61° |
| 2026-04-20 20:27 | 55.85810 | -3.64533 | 3559 ft | 174 kts | 61° |
| 2026-04-20 20:27 | 55.86417 | -3.62722 | 3336 ft | 166 kts | 61° |
| 2026-04-20 20:28 | 55.86800 | -3.61582 | 3174 ft | 159 kts | 61° |
| 2026-04-20 20:28 | 55.87527 | -3.59420 | 2935 ft | 147 kts | 62° |
| 2026-04-20 20:28 | 55.88053 | -3.57854 | 2707 ft | 148 kts | 62° |
| 2026-04-20 20:28 | 55.88582 | -3.56279 | 2501 ft | 148 kts | 62° |
| 2026-04-20 20:29 | 55.89109 | -3.54710 | 2284 ft | 147 kts | 62° |
| 2026-04-20 20:29 | 55.89631 | -3.53160 | 2091 ft | 146 kts | 62° |
| 2026-04-20 20:29 | 55.90150 | -3.51615 | 1885 ft | 145 kts | 62° |
| 2026-04-20 20:29 | 55.90656 | -3.50102 | 1649 ft | 143 kts | 62° |
| 2026-04-20 20:30 | 55.91168 | -3.48590 | 1430 ft | 142 kts | 62° |
| 2026-04-20 20:30 | 55.91683 | -3.47069 | 1237 ft | 139 kts | 60° |
| 2026-04-20 20:30 | 55.92185 | -3.45591 | 1046 ft | 140 kts | 61° |
| 2026-04-20 20:30 | 55.92674 | -3.44112 | 837 ft | 140 kts | 60° |
| 2026-04-20 20:31 | 55.93179 | -3.42610 | 662 ft | 142 kts | 60° |
| 2026-04-20 20:31 | 55.93695 | -3.41113 | 438 ft | 142 kts | 60° |
| 2026-04-20 20:31 | 55.94191 | -3.39610 | 259 ft | 137 kts | 61° |
| 2026-04-20 20:31 | 55.94677 | -3.38209 | 117 ft | 128 kts | 58° |
| 2026-04-20 20:32 | 55.95086 | -3.36996 | 112 ft | 97 kts | 59° |
| 2026-04-20 20:32 | 55.95363 | -3.36178 | 109 ft | 57 kts | 59° |
| 2026-04-20 20:32 | 55.95493 | -3.35796 | 112 ft | 26 kts | 59° |
| 2026-04-20 20:32 | 55.95562 | -3.35583 | 112 ft | 13 kts | 72° |
| 2026-04-20 20:33 | 55.95518 | -3.35461 | 112 ft | 9 kts | 148° |
| 2026-04-20 20:33 | 55.95488 | -3.35427 | 113 ft | 4 kts | 148° |
| 2026-04-20 20:33 | 55.95461 | -3.35404 | 111 ft | 5 kts | 167° |
| 2026-04-20 20:33 | 55.95424 | -3.35433 | 113 ft | 7 kts | 226° |
| 2026-04-20 20:34 | 55.95397 | -3.35504 | 114 ft | 7 kts | 240° |
| 2026-04-20 20:34 | 55.95370 | -3.35585 | 115 ft | 9 kts | 239° |
| 2026-04-20 20:34 | 55.95325 | -3.35715 | 114 ft | 15 kts | 238° |
| 2026-04-20 20:34 | 55.95262 | -3.35902 | 114 ft | 20 kts | 239° |
| 2026-04-20 20:35 | 55.95185 | -3.36129 | 115 ft | 21 kts | 239° |
| 2026-04-20 20:35 | 55.95110 | -3.36353 | 112 ft | 21 kts | 239° |
| 2026-04-20 20:35 | 55.95036 | -3.36571 | 113 ft | 20 kts | 239° |
| 2026-04-20 20:35 | 55.94978 | -3.36740 | 114 ft | 12 kts | 238° |
| 2026-04-20 20:36 | 55.94926 | -3.36825 | 113 ft | 10 kts | 182° |
| 2026-04-20 20:36 | 55.94863 | -3.36781 | 114 ft | 10 kts | 170° |
| 2026-04-20 20:36 | 55.94795 | -3.36778 | 115 ft | 10 kts | 180° |
| 2026-04-20 20:36 | 55.94734 | -3.36738 | 115 ft | 9 kts | 172° |
| 2026-04-20 20:37 | 55.94669 | -3.36735 | 115 ft | 9 kts | 180° |
| 2026-04-20 20:37 | 55.94624 | -3.36730 | 115 ft | 6 kts | 156° |
| 2026-04-20 20:37 | 55.94612 | -3.36666 | 115 ft | 3 kts | 90° |
| 2026-04-20 20:37 | 55.94612 | -3.36633 | 115 ft | 2 kts | 90° |
| 2026-04-20 20:38 | 55.94612 | -3.36624 | 115 ft | 0 kts | 90° |